sensor_id;sensor_type;location;lat;lon;timestamp;pressure;altitude;pressure_sealevel;temperature;humidity
51715;BME280;39115;59.332;18.034;2023-02-20T00:00:40;100178.63;;;-1.25;55.00
51715;BME280;39115;59.332;18.034;2023-02-20T00:03:00;100178.53;;;-1.23;55.25
51715;BME280;39115;59.332;18.034;2023-02-20T00:05:21;100186.38;;;-1.23;55.09
51715;BME280;39115;59.332;18.034;2023-02-20T00:07:42;100178.47;;;-1.22;55.21
51715;BME280;39115;59.332;18.034;2023-02-20T00:10:02;100168.00;;;-1.22;55.17
51715;BME280;39115;59.332;18.034;2023-02-20T00:12:23;100154.94;;;-1.22;55.15
51715;BME280;39115;59.332;18.034;2023-02-20T00:14:43;100149.72;;;-1.22;55.42
51715;BME280;39115;59.332;18.034;2023-02-20T00:17:04;100157.56;;;-1.22;55.09
51715;BME280;39115;59.332;18.034;2023-02-20T00:19:25;100147.09;;;-1.22;55.28
51715;BME280;39115;59.332;18.034;2023-02-20T00:21:47;100140.19;;;-1.23;55.12
51715;BME280;39115;59.332;18.034;2023-02-20T00:24:07;100129.69;;;-1.21;55.08
51715;BME280;39115;59.332;18.034;2023-02-20T00:26:28;100138.38;;;-1.21;55.09
51715;BME280;39115;59.332;18.034;2023-02-20T00:28:48;100135.75;;;-1.21;55.31
51715;BME280;39115;59.332;18.034;2023-02-20T00:31:13;100133.97;;;-1.20;55.13
51715;BME280;39115;59.332;18.034;2023-02-20T00:33:34;100144.41;;;-1.20;55.22
51715;BME280;39115;59.332;18.034;2023-02-20T00:35:55;100147.97;;;-1.21;55.17
51715;BME280;39115;59.332;18.034;2023-02-20T00:38:16;100140.97;;;-1.21;55.37
51715;BME280;39115;59.332;18.034;2023-02-20T00:40:38;100134.91;;;-1.21;55.17
51715;BME280;39115;59.332;18.034;2023-02-20T00:42:58;100133.13;;;-1.21;55.31
51715;BME280;39115;59.332;18.034;2023-02-20T00:45:19;100129.69;;;-1.21;55.32
51715;BME280;39115;59.332;18.034;2023-02-20T00:47:40;100116.69;;;-1.23;55.28
51715;BME280;39115;59.332;18.034;2023-02-20T00:50:01;100115.84;;;-1.23;55.36
51715;BME280;39115;59.332;18.034;2023-02-20T00:52:21;100110.63;;;-1.23;55.40
51715;BME280;39115;59.332;18.034;2023-02-20T00:54:42;100102.78;;;-1.23;55.45
51715;BME280;39115;59.332;18.034;2023-02-20T00:57:03;100093.25;;;-1.24;55.49
51715;BME280;39115;59.332;18.034;2023-02-20T00:59:24;100090.56;;;-1.23;55.28
51715;BME280;39115;59.332;18.034;2023-02-20T01:01:44;100098.34;;;-1.21;55.34
51715;BME280;39115;59.332;18.034;2023-02-20T01:04:05;100085.34;;;-1.23;55.50
51715;BME280;39115;59.332;18.034;2023-02-20T01:06:25;100078.28;;;-1.21;55.66
51715;BME280;39115;59.332;18.034;2023-02-20T01:08:46;100080.91;;;-1.21;55.40
51715;BME280;39115;59.332;18.034;2023-02-20T01:11:06;100063.44;;;-1.20;55.39
51715;BME280;39115;59.332;18.034;2023-02-20T01:13:27;100057.31;;;-1.19;55.61
51715;BME280;39115;59.332;18.034;2023-02-20T01:15:47;100062.47;;;-1.18;55.51
51715;BME280;39115;59.332;18.034;2023-02-20T01:18:08;100059.09;;;-1.20;55.38
51715;BME280;39115;59.332;18.034;2023-02-20T01:20:28;100051.25;;;-1.20;55.49
51715;BME280;39115;59.332;18.034;2023-02-20T01:22:49;100046.03;;;-1.20;55.51
51715;BME280;39115;59.332;18.034;2023-02-20T01:25:09;100036.50;;;-1.21;55.70
51715;BME280;39115;59.332;18.034;2023-02-20T01:27:30;100038.19;;;-1.20;55.33
51715;BME280;39115;59.332;18.034;2023-02-20T01:29:50;100032.97;;;-1.20;55.56
51715;BME280;39115;59.332;18.034;2023-02-20T01:32:11;100027.75;;;-1.20;55.92
51715;BME280;39115;59.332;18.034;2023-02-20T01:34:32;100028.66;;;-1.21;55.65
51715;BME280;39115;59.332;18.034;2023-02-20T01:36:53;100019.03;;;-1.20;55.69
51715;BME280;39115;59.332;18.034;2023-02-20T01:39:21;100010.28;;;-1.19;55.61
51715;BME280;39115;59.332;18.034;2023-02-20T01:41:43;100013.06;;;-1.22;55.47
51715;BME280;39115;59.332;18.034;2023-02-20T01:44:03;100013.75;;;-1.19;55.53
51715;BME280;39115;59.332;18.034;2023-02-20T01:48:48;99987.66;;;-1.19;55.73
51715;BME280;39115;59.332;18.034;2023-02-20T01:51:09;99978.03;;;-1.18;55.59
51715;BME280;39115;59.332;18.034;2023-02-20T01:53:30;99975.41;;;-1.18;55.75
51715;BME280;39115;59.332;18.034;2023-02-20T01:55:58;99970.13;;;-1.17;55.47
51715;BME280;39115;59.332;18.034;2023-02-20T01:58:28;99958.75;;;-1.16;55.64
51715;BME280;39115;59.332;18.034;2023-02-20T02:00:50;99962.22;;;-1.15;55.70
51715;BME280;39115;59.332;18.034;2023-02-20T02:03:15;99948.28;;;-1.16;55.47
51715;BME280;39115;59.332;18.034;2023-02-20T02:05:40;99939.38;;;-1.12;55.58
51715;BME280;39115;59.332;18.034;2023-02-20T02:08:05;99927.16;;;-1.11;55.48
51715;BME280;39115;59.332;18.034;2023-02-20T02:10:42;99925.41;;;-1.10;55.32
51715;BME280;39115;59.332;18.034;2023-02-20T02:13:05;99934.16;;;-1.12;55.31
51715;BME280;39115;59.332;18.034;2023-02-20T02:15:26;99907.13;;;-1.10;55.20
51715;BME280;39115;59.332;18.034;2023-02-20T02:17:52;99900.19;;;-1.12;55.40
51715;BME280;39115;59.332;18.034;2023-02-20T02:37:02;99864.22;;;-1.06;55.06
51715;BME280;39115;59.332;18.034;2023-02-20T02:39:38;99852.16;;;-1.09;54.94
51715;BME280;39115;59.332;18.034;2023-02-20T02:44:51;99816.53;;;-1.10;54.82
51715;BME280;39115;59.332;18.034;2023-02-20T02:47:41;99818.31;;;-1.10;54.88
51715;BME280;39115;59.332;18.034;2023-02-20T02:50:20;99812.31;;;-1.13;55.02
51715;BME280;39115;59.332;18.034;2023-02-20T02:52:42;99808.09;;;-1.15;54.62
51715;BME280;39115;59.332;18.034;2023-02-20T02:55:09;99798.66;;;-1.18;54.73
51715;BME280;39115;59.332;18.034;2023-02-20T02:57:30;99790.84;;;-1.18;54.65
51715;BME280;39115;59.332;18.034;2023-02-20T02:59:59;99789.91;;;-1.17;54.66
51715;BME280;39115;59.332;18.034;2023-02-20T03:02:22;99803.78;;;-1.16;54.88
51715;BME280;39115;59.332;18.034;2023-02-20T03:04:46;99814.25;;;-1.16;54.44
51715;BME280;39115;59.332;18.034;2023-02-20T03:07:12;99805.56;;;-1.17;54.64
51715;BME280;39115;59.332;18.034;2023-02-20T03:10:08;99796.06;;;-1.18;54.44
51715;BME280;39115;59.332;18.034;2023-02-20T03:12:31;99796.19;;;-1.21;54.66
51715;BME280;39115;59.332;18.034;2023-02-20T03:17:47;99782.31;;;-1.21;54.34
51715;BME280;39115;59.332;18.034;2023-02-20T03:20:14;99779.72;;;-1.21;54.64
51715;BME280;39115;59.332;18.034;2023-02-20T03:22:52;99778.84;;;-1.22;54.62
51715;BME280;39115;59.332;18.034;2023-02-20T03:25:38;99771.00;;;-1.22;54.60
51715;BME280;39115;59.332;18.034;2023-02-20T03:28:00;99770.09;;;-1.21;54.84
51715;BME280;39115;59.332;18.034;2023-02-20T03:30:33;99768.41;;;-1.22;54.47
51715;BME280;39115;59.332;18.034;2023-02-20T03:33:05;99765.78;;;-1.22;54.71
51715;BME280;39115;59.332;18.034;2023-02-20T03:35:47;99761.44;;;-1.21;54.50
51715;BME280;39115;59.332;18.034;2023-02-20T03:38:27;99757.84;;;-1.20;54.44
51715;BME280;39115;59.332;18.034;2023-02-20T03:41:08;99747.41;;;-1.20;54.36
51715;BME280;39115;59.332;18.034;2023-02-20T03:43:50;99738.66;;;-1.19;54.36
51715;BME280;39115;59.332;18.034;2023-02-20T03:46:16;99734.19;;;-1.17;54.66
51715;BME280;39115;59.332;18.034;2023-02-20T03:48:58;99719.28;;;-1.15;54.64
51715;BME280;39115;59.332;18.034;2023-02-20T03:51:20;99708.66;;;-1.12;54.30
51715;BME280;39115;59.332;18.034;2023-02-20T03:53:42;99701.59;;;-1.10;54.40
51715;BME280;39115;59.332;18.034;2023-02-20T03:56:16;99690.13;;;-1.07;54.24
51715;BME280;39115;59.332;18.034;2023-02-20T03:58:41;99682.13;;;-1.04;54.44
51715;BME280;39115;59.332;18.034;2023-02-20T04:01:07;99668.03;;;-1.02;54.20
51715;BME280;39115;59.332;18.034;2023-02-20T04:03:32;99652.38;;;-1.02;54.44
51715;BME280;39115;59.332;18.034;2023-02-20T04:05:56;99641.81;;;-1.00;54.48
51715;BME280;39115;59.332;18.034;2023-02-20T04:08:28;99648.81;;;-1.01;54.49
51715;BME280;39115;59.332;18.034;2023-02-20T04:10:58;99630.53;;;-1.01;54.41
51715;BME280;39115;59.332;18.034;2023-02-20T04:13:19;99605.16;;;-0.99;54.16
51715;BME280;39115;59.332;18.034;2023-02-20T04:15:41;99599.84;;;-0.97;54.28
51715;BME280;39115;59.332;18.034;2023-02-20T04:18:08;99588.38;;;-0.94;54.41
51715;BME280;39115;59.332;18.034;2023-02-20T04:20:30;99585.66;;;-0.93;54.41
51715;BME280;39115;59.332;18.034;2023-02-20T04:22:53;99581.41;;;-0.94;54.22
51715;BME280;39115;59.332;18.034;2023-02-20T04:28:02;99556.09;;;-0.93;54.17
51715;BME280;39115;59.332;18.034;2023-02-20T04:30:23;99552.56;;;-0.92;54.17
51715;BME280;39115;59.332;18.034;2023-02-20T04:32:43;99533.34;;;-0.91;54.19
51715;BME280;39115;59.332;18.034;2023-02-20T04:35:04;99522.03;;;-0.92;54.25
51715;BME280;39115;59.332;18.034;2023-02-20T04:37:25;99521.97;;;-0.90;54.10
51715;BME280;39115;59.332;18.034;2023-02-20T04:39:46;99515.78;;;-0.89;54.11
51715;BME280;39115;59.332;18.034;2023-02-20T04:42:07;99491.25;;;-0.87;54.10
51715;BME280;39115;59.332;18.034;2023-02-20T04:44:27;99489.38;;;-0.85;54.01
51715;BME280;39115;59.332;18.034;2023-02-20T04:46:50;99504.13;;;-0.84;53.88
51715;BME280;39115;59.332;18.034;2023-02-20T04:49:11;99495.25;;;-0.81;53.95
51715;BME280;39115;59.332;18.034;2023-02-20T04:51:31;99478.56;;;-0.78;53.72
51715;BME280;39115;59.332;18.034;2023-02-20T04:53:55;99476.78;;;-0.78;53.97
51715;BME280;39115;59.332;18.034;2023-02-20T04:56:16;99467.81;;;-0.74;53.96
51715;BME280;39115;59.332;18.034;2023-02-20T04:58:37;99467.75;;;-0.72;53.94
51715;BME280;39115;59.332;18.034;2023-02-20T05:00:58;99459.78;;;-0.71;53.82
51715;BME280;39115;59.332;18.034;2023-02-20T05:03:19;99432.72;;;-0.70;53.83
51715;BME280;39115;59.332;18.034;2023-02-20T05:05:39;99422.00;;;-0.65;54.02
51715;BME280;39115;59.332;18.034;2023-02-20T05:08:03;99414.91;;;-0.63;53.74
51715;BME280;39115;59.332;18.034;2023-02-20T05:10:24;99408.63;;;-0.60;53.84
51715;BME280;39115;59.332;18.034;2023-02-20T05:12:45;99380.72;;;-0.60;53.87
51715;BME280;39115;59.332;18.034;2023-02-20T05:15:06;99384.06;;;-0.58;53.71
51715;BME280;39115;59.332;18.034;2023-02-20T05:17:26;99363.91;;;-0.56;53.79
51715;BME280;39115;59.332;18.034;2023-02-20T05:19:47;99344.56;;;-0.53;53.90
51715;BME280;39115;59.332;18.034;2023-02-20T05:22:11;99338.41;;;-0.52;53.95
51715;BME280;39115;59.332;18.034;2023-02-20T05:24:42;99328.66;;;-0.50;54.08
51715;BME280;39115;59.332;18.034;2023-02-20T05:27:03;99324.06;;;-0.46;53.88
51715;BME280;39115;59.332;18.034;2023-02-20T05:29:24;99308.31;;;-0.45;54.13
51715;BME280;39115;59.332;18.034;2023-02-20T05:31:45;99306.44;;;-0.43;54.14
51715;BME280;39115;59.332;18.034;2023-02-20T05:34:06;99298.38;;;-0.40;54.32
51715;BME280;39115;59.332;18.034;2023-02-20T05:36:27;99289.59;;;-0.39;54.41
51715;BME280;39115;59.332;18.034;2023-02-20T05:38:47;99273.09;;;-0.39;54.91
51715;BME280;39115;59.332;18.034;2023-02-20T05:41:08;99247.78;;;-0.39;55.08
51715;BME280;39115;59.332;18.034;2023-02-20T05:43:29;99246.19;;;-0.41;55.76
51715;BME280;39115;59.332;18.034;2023-02-20T05:45:49;99229.88;;;-0.45;56.06
51715;BME280;39115;59.332;18.034;2023-02-20T05:48:13;99217.75;;;-0.46;56.55
51715;BME280;39115;59.332;18.034;2023-02-20T05:50:34;99210.84;;;-0.47;56.81
51715;BME280;39115;59.332;18.034;2023-02-20T05:52:55;99197.94;;;-0.50;56.75
51715;BME280;39115;59.332;18.034;2023-02-20T05:55:15;99192.00;;;-0.52;57.50
51715;BME280;39115;59.332;18.034;2023-02-20T05:57:36;99176.50;;;-0.55;57.38
51715;BME280;39115;59.332;18.034;2023-02-20T05:59:56;99160.09;;;-0.57;57.81
51715;BME280;39115;59.332;18.034;2023-02-20T06:02:17;99163.75;;;-0.60;58.04
51715;BME280;39115;59.332;18.034;2023-02-20T06:04:37;99152.56;;;-0.62;58.07
51715;BME280;39115;59.332;18.034;2023-02-20T06:06:58;99144.06;;;-0.66;58.49
51715;BME280;39115;59.332;18.034;2023-02-20T06:09:18;99136.34;;;-0.67;58.73
51715;BME280;39115;59.332;18.034;2023-02-20T06:11:39;99130.38;;;-0.69;59.21
51715;BME280;39115;59.332;18.034;2023-02-20T06:14:00;99117.53;;;-0.72;59.13
51715;BME280;39115;59.332;18.034;2023-02-20T06:16:22;99106.22;;;-0.73;59.60
51715;BME280;39115;59.332;18.034;2023-02-20T06:18:43;99091.59;;;-0.75;59.88
51715;BME280;39115;59.332;18.034;2023-02-20T06:21:09;99064.63;;;-0.76;60.28
51715;BME280;39115;59.332;18.034;2023-02-20T06:23:29;99063.91;;;-0.78;60.12
51715;BME280;39115;59.332;18.034;2023-02-20T06:25:50;99060.53;;;-0.80;60.42
51715;BME280;39115;59.332;18.034;2023-02-20T06:28:10;99057.00;;;-0.79;60.65
51715;BME280;39115;59.332;18.034;2023-02-20T06:30:31;99041.44;;;-0.81;61.19
51715;BME280;39115;59.332;18.034;2023-02-20T06:32:51;99025.75;;;-0.81;61.16
51715;BME280;39115;59.332;18.034;2023-02-20T06:35:12;99004.97;;;-0.82;61.27
51715;BME280;39115;59.332;18.034;2023-02-20T06:37:32;98990.84;;;-0.80;61.64
51715;BME280;39115;59.332;18.034;2023-02-20T06:39:53;98979.53;;;-0.80;61.54
51715;BME280;39115;59.332;18.034;2023-02-20T06:42:14;98960.44;;;-0.81;62.23
51715;BME280;39115;59.332;18.034;2023-02-20T06:44:35;98956.88;;;-0.80;62.12
51715;BME280;39115;59.332;18.034;2023-02-20T06:46:55;98935.84;;;-0.78;62.73
51715;BME280;39115;59.332;18.034;2023-02-20T06:49:16;98930.44;;;-0.75;62.73
51715;BME280;39115;59.332;18.034;2023-02-20T06:51:36;98918.06;;;-0.73;62.69
51715;BME280;39115;59.332;18.034;2023-02-20T06:53:58;98897.91;;;-0.71;63.19
51715;BME280;39115;59.332;18.034;2023-02-20T06:56:22;98895.91;;;-0.67;63.34
51715;BME280;39115;59.332;18.034;2023-02-20T06:58:45;98870.38;;;-0.64;63.69
51715;BME280;39115;59.332;18.034;2023-02-20T07:01:07;98863.28;;;-0.61;63.80
51715;BME280;39115;59.332;18.034;2023-02-20T07:03:28;98847.41;;;-0.58;64.03
51715;BME280;39115;59.332;18.034;2023-02-20T07:05:48;98843.72;;;-0.56;64.07
51715;BME280;39115;59.332;18.034;2023-02-20T07:08:09;98837.44;;;-0.53;64.37
51715;BME280;39115;59.332;18.034;2023-02-20T07:10:29;98817.94;;;-0.49;64.31
51715;BME280;39115;59.332;18.034;2023-02-20T07:12:50;98819.28;;;-0.43;64.52
51715;BME280;39115;59.332;18.034;2023-02-20T07:15:10;98806.72;;;-0.38;64.96
51715;BME280;39115;59.332;18.034;2023-02-20T07:17:31;98794.16;;;-0.33;64.89
51715;BME280;39115;59.332;18.034;2023-02-20T07:19:52;98773.94;;;-0.31;64.98
51715;BME280;39115;59.332;18.034;2023-02-20T07:22:13;98773.59;;;-0.26;64.92
51715;BME280;39115;59.332;18.034;2023-02-20T07:24:33;98754.00;;;-0.21;65.46
51715;BME280;39115;59.332;18.034;2023-02-20T07:26:56;98734.63;;;-0.18;65.47
51715;BME280;39115;59.332;18.034;2023-02-20T07:29:16;98716.69;;;-0.11;65.63
51715;BME280;39115;59.332;18.034;2023-02-20T07:31:37;98706.63;;;-0.05;65.60
51715;BME280;39115;59.332;18.034;2023-02-20T07:33:58;98701.03;;;0.00;66.07
51715;BME280;39115;59.332;18.034;2023-02-20T07:36:18;98677.00;;;0.06;66.41
51715;BME280;39115;59.332;18.034;2023-02-20T07:38:39;98664.28;;;0.13;65.98
51715;BME280;39115;59.332;18.034;2023-02-20T07:40:59;98640.38;;;0.18;66.36
51715;BME280;39115;59.332;18.034;2023-02-20T07:43:20;98632.75;;;0.26;66.32
51715;BME280;39115;59.332;18.034;2023-02-20T07:45:41;98627.88;;;0.33;66.46
51715;BME280;39115;59.332;18.034;2023-02-20T07:48:01;98621.19;;;0.40;66.48
51715;BME280;39115;59.332;18.034;2023-02-20T07:50:22;98607.47;;;0.47;67.11
51715;BME280;39115;59.332;18.034;2023-02-20T07:52:44;98593.94;;;0.54;67.11
51715;BME280;39115;59.332;18.034;2023-02-20T07:55:05;98574.97;;;0.61;67.22
51715;BME280;39115;59.332;18.034;2023-02-20T07:57:25;98569.13;;;0.69;67.21
51715;BME280;39115;59.332;18.034;2023-02-20T07:59:46;98552.91;;;0.75;67.54
51715;BME280;39115;59.332;18.034;2023-02-20T08:02:06;98543.72;;;0.81;67.28
51715;BME280;39115;59.332;18.034;2023-02-20T08:04:27;98530.91;;;0.88;67.38
51715;BME280;39115;59.332;18.034;2023-02-20T08:06:47;98513.88;;;0.93;67.60
51715;BME280;39115;59.332;18.034;2023-02-20T08:09:08;98505.50;;;1.00;67.96
51715;BME280;39115;59.332;18.034;2023-02-20T08:11:32;98496.44;;;1.04;67.78
51715;BME280;39115;59.332;18.034;2023-02-20T08:13:53;98475.75;;;1.10;67.84
51715;BME280;39115;59.332;18.034;2023-02-20T08:16:15;98464.06;;;1.15;68.20
51715;BME280;39115;59.332;18.034;2023-02-20T08:18:35;98459.50;;;1.17;68.19
51715;BME280;39115;59.332;18.034;2023-02-20T08:21:26;98433.63;;;1.23;67.57
51715;BME280;39115;59.332;18.034;2023-02-20T08:23:47;98426.88;;;1.31;67.94
51715;BME280;39115;59.332;18.034;2023-02-20T08:26:08;98421.38;;;1.34;68.04
51715;BME280;39115;59.332;18.034;2023-02-20T08:28:28;98406.78;;;1.41;68.08
51715;BME280;39115;59.332;18.034;2023-02-20T08:30:49;98401.97;;;1.46;68.19
51715;BME280;39115;59.332;18.034;2023-02-20T08:33:09;98393.00;;;1.49;68.38
51715;BME280;39115;59.332;18.034;2023-02-20T08:35:30;98374.38;;;1.52;68.28
51715;BME280;39115;59.332;18.034;2023-02-20T08:37:50;98366.25;;;1.55;68.59
51715;BME280;39115;59.332;18.034;2023-02-20T08:40:12;98351.88;;;1.59;68.66
51715;BME280;39115;59.332;18.034;2023-02-20T08:42:33;98344.72;;;1.61;68.70
51715;BME280;39115;59.332;18.034;2023-02-20T08:44:54;98331.47;;;1.63;68.56
51715;BME280;39115;59.332;18.034;2023-02-20T08:47:18;98314.22;;;1.60;69.05
51715;BME280;39115;59.332;18.034;2023-02-20T08:49:39;98295.84;;;1.60;69.03
51715;BME280;39115;59.332;18.034;2023-02-20T08:51:59;98289.75;;;1.60;69.04
51715;BME280;39115;59.332;18.034;2023-02-20T08:54:22;98282.59;;;1.62;69.01
51715;BME280;39115;59.332;18.034;2023-02-20T08:56:43;98280.81;;;1.62;69.04
51715;BME280;39115;59.332;18.034;2023-02-20T08:59:04;98273.78;;;1.63;69.26
51715;BME280;39115;59.332;18.034;2023-02-20T09:01:24;98268.38;;;1.64;69.26
51715;BME280;39115;59.332;18.034;2023-02-20T09:03:45;98266.03;;;1.71;69.20
51715;BME280;39115;59.332;18.034;2023-02-20T09:06:05;98253.31;;;1.76;69.11
51715;BME280;39115;59.332;18.034;2023-02-20T09:08:26;98244.50;;;1.77;69.29
51715;BME280;39115;59.332;18.034;2023-02-20T09:10:47;98237.72;;;1.74;69.64
51715;BME280;39115;59.332;18.034;2023-02-20T09:13:07;98228.34;;;1.72;69.48
51715;BME280;39115;59.332;18.034;2023-02-20T09:15:28;98220.63;;;1.70;69.75
51715;BME280;39115;59.332;18.034;2023-02-20T09:17:51;98211.91;;;1.70;69.76
51715;BME280;39115;59.332;18.034;2023-02-20T09:20:12;98201.44;;;1.70;69.56
51715;BME280;39115;59.332;18.034;2023-02-20T09:22:32;98181.28;;;1.70;69.68
51715;BME280;39115;59.332;18.034;2023-02-20T09:24:53;98171.34;;;1.74;69.55
51715;BME280;39115;59.332;18.034;2023-02-20T09:27:14;98152.13;;;1.73;69.91
51715;BME280;39115;59.332;18.034;2023-02-20T09:29:34;98137.38;;;1.72;69.77
51715;BME280;39115;59.332;18.034;2023-02-20T09:32:00;98128.53;;;1.73;69.50
51715;BME280;39115;59.332;18.034;2023-02-20T09:34:20;98115.97;;;1.77;69.91
51715;BME280;39115;59.332;18.034;2023-02-20T09:36:41;98106.97;;;1.80;69.94
51715;BME280;39115;59.332;18.034;2023-02-20T09:39:01;98087.22;;;1.85;69.71
51715;BME280;39115;59.332;18.034;2023-02-20T09:41:34;98082.94;;;1.84;69.96
51715;BME280;39115;59.332;18.034;2023-02-20T09:44:26;98071.63;;;1.84;69.59
51715;BME280;39115;59.332;18.034;2023-02-20T09:46:48;98059.63;;;1.81;69.78
51715;BME280;39115;59.332;18.034;2023-02-20T09:49:13;98042.09;;;1.82;70.00
51715;BME280;39115;59.332;18.034;2023-02-20T09:51:38;98041.91;;;1.83;70.24
51715;BME280;39115;59.332;18.034;2023-02-20T09:56:44;98022.38;;;1.78;70.18
51715;BME280;39115;59.332;18.034;2023-02-20T10:01:38;98040.56;;;1.79;70.49
51715;BME280;39115;59.332;18.034;2023-02-20T10:04:09;98020.81;;;1.85;70.29
51715;BME280;39115;59.332;18.034;2023-02-20T10:06:32;98014.72;;;1.84;70.34
51715;BME280;39115;59.332;18.034;2023-02-20T10:08:53;97995.69;;;1.82;70.59
51715;BME280;39115;59.332;18.034;2023-02-20T10:17:33;97964.53;;;1.97;70.05
51715;BME280;39115;59.332;18.034;2023-02-20T10:23:12;97951.59;;;2.14;70.10
51715;BME280;39115;59.332;18.034;2023-02-20T10:25:40;97956.22;;;2.20;70.79
51715;BME280;39115;59.332;18.034;2023-02-20T10:28:06;97945.13;;;2.26;70.79
51715;BME280;39115;59.332;18.034;2023-02-20T10:33:09;97939.28;;;2.32;70.91
51715;BME280;39115;59.332;18.034;2023-02-20T10:35:41;97928.34;;;2.37;70.58
51715;BME280;39115;59.332;18.034;2023-02-20T10:38:08;97923.28;;;2.44;70.97
51715;BME280;39115;59.332;18.034;2023-02-20T10:40:38;97907.91;;;2.49;70.96
51715;BME280;39115;59.332;18.034;2023-02-20T10:43:08;97896.66;;;2.57;71.03
51715;BME280;39115;59.332;18.034;2023-02-20T10:45:48;97887.16;;;2.64;70.89
51715;BME280;39115;59.332;18.034;2023-02-20T10:48:11;97874.38;;;2.69;71.04
51715;BME280;39115;59.332;18.034;2023-02-20T10:58:52;97835.09;;;2.85;71.05
51715;BME280;39115;59.332;18.034;2023-02-20T11:01:19;97826.25;;;2.95;71.38
51715;BME280;39115;59.332;18.034;2023-02-20T11:06:15;97814.47;;;3.07;71.14
51715;BME280;39115;59.332;18.034;2023-02-20T11:08:35;97807.25;;;3.09;71.04
51715;BME280;39115;59.332;18.034;2023-02-20T11:11:00;97814.16;;;3.10;71.30
51715;BME280;39115;59.332;18.034;2023-02-20T11:13:25;97807.75;;;3.13;71.14
51715;BME280;39115;59.332;18.034;2023-02-20T11:15:47;97793.81;;;3.12;71.32
51715;BME280;39115;59.332;18.034;2023-02-20T11:18:22;97779.03;;;3.11;71.32
51715;BME280;39115;59.332;18.034;2023-02-20T11:20:45;97781.81;;;3.10;71.60
51715;BME280;39115;59.332;18.034;2023-02-20T11:23:06;97786.91;;;3.11;71.71
51715;BME280;39115;59.332;18.034;2023-02-20T11:27:55;97770.50;;;3.17;71.69
51715;BME280;39115;59.332;18.034;2023-02-20T11:30:31;97770.50;;;3.17;72.01
51715;BME280;39115;59.332;18.034;2023-02-20T11:35:36;97762.94;;;3.23;72.22
51715;BME280;39115;59.332;18.034;2023-02-20T11:40:38;97757.22;;;3.36;72.22
51715;BME280;39115;59.332;18.034;2023-02-20T11:43:32;97752.94;;;3.35;71.88
51715;BME280;39115;59.332;18.034;2023-02-20T11:46:13;97747.38;;;3.38;72.08
51715;BME280;39115;59.332;18.034;2023-02-20T11:48:34;97743.44;;;3.42;72.25
51715;BME280;39115;59.332;18.034;2023-02-20T11:50:54;97738.50;;;3.47;72.21
51715;BME280;39115;59.332;18.034;2023-02-20T11:53:26;97742.63;;;3.50;72.27
51715;BME280;39115;59.332;18.034;2023-02-20T11:56:05;97738.53;;;3.55;72.31
51715;BME280;39115;59.332;18.034;2023-02-20T11:58:27;97736.53;;;3.66;72.25
51715;BME280;39115;59.332;18.034;2023-02-20T12:00:50;97734.56;;;3.76;72.11
51715;BME280;39115;59.332;18.034;2023-02-20T12:03:12;97743.78;;;3.80;72.40
51715;BME280;39115;59.332;18.034;2023-02-20T12:05:44;97730.16;;;3.76;72.41
51715;BME280;39115;59.332;18.034;2023-02-20T12:13:25;97722.75;;;3.72;72.76
51715;BME280;39115;59.332;18.034;2023-02-20T12:26:59;97737.19;;;3.76;73.25
51715;BME280;39115;59.332;18.034;2023-02-20T12:32:02;97734.25;;;3.87;73.22
51715;BME280;39115;59.332;18.034;2023-02-20T12:34:35;97749.88;;;3.89;73.33
51715;BME280;39115;59.332;18.034;2023-02-20T12:37:12;97745.41;;;3.89;72.64
51715;BME280;39115;59.332;18.034;2023-02-20T12:42:27;97751.50;;;3.90;72.97
51715;BME280;39115;59.332;18.034;2023-02-20T12:47:34;97742.16;;;3.95;72.86
51715;BME280;39115;59.332;18.034;2023-02-20T12:50:29;97746.25;;;3.98;72.56
51715;BME280;39115;59.332;18.034;2023-02-20T12:56:06;97754.63;;;4.10;72.49
51715;BME280;39115;59.332;18.034;2023-02-20T13:01:00;97749.66;;;4.32;72.17
51715;BME280;39115;59.332;18.034;2023-02-20T13:06:01;97758.16;;;4.58;72.52
51715;BME280;39115;59.332;18.034;2023-02-20T13:08:28;97758.47;;;4.64;72.36
51715;BME280;39115;59.332;18.034;2023-02-20T13:10:58;97760.25;;;4.63;72.36
51715;BME280;39115;59.332;18.034;2023-02-20T13:13:20;97767.34;;;4.63;72.33
51715;BME280;39115;59.332;18.034;2023-02-20T13:16:25;97795.53;;;4.62;71.60
51715;BME280;39115;59.332;18.034;2023-02-20T13:21:01;97775.44;;;4.53;72.22
51715;BME280;39115;59.332;18.034;2023-02-20T13:23:27;97770.19;;;4.45;71.86
51715;BME280;39115;59.332;18.034;2023-02-20T13:25:49;97777.78;;;4.39;71.98
51715;BME280;39115;59.332;18.034;2023-02-20T13:31:10;97798.03;;;4.31;72.04
51715;BME280;39115;59.332;18.034;2023-02-20T13:33:32;97799.19;;;4.28;72.12
51715;BME280;39115;59.332;18.034;2023-02-20T13:35:56;97816.16;;;4.25;71.92
51715;BME280;39115;59.332;18.034;2023-02-20T13:38:18;97807.78;;;4.22;71.76
51715;BME280;39115;59.332;18.034;2023-02-20T13:40:45;97806.13;;;4.21;72.18
51715;BME280;39115;59.332;18.034;2023-02-20T13:45:44;97827.50;;;4.26;71.81
51715;BME280;39115;59.332;18.034;2023-02-20T13:50:48;97822.91;;;4.20;71.77
51715;BME280;39115;59.332;18.034;2023-02-20T13:53:08;97823.88;;;4.19;71.46
51715;BME280;39115;59.332;18.034;2023-02-20T13:55:29;97830.00;;;4.19;71.98
51715;BME280;39115;59.332;18.034;2023-02-20T13:57:52;97828.16;;;4.20;71.71
51715;BME280;39115;59.332;18.034;2023-02-20T14:00:43;97833.94;;;4.15;71.69
51715;BME280;39115;59.332;18.034;2023-02-20T14:03:23;97842.00;;;4.14;71.62
51715;BME280;39115;59.332;18.034;2023-02-20T14:05:45;97843.16;;;4.11;71.86
51715;BME280;39115;59.332;18.034;2023-02-20T14:08:05;97853.03;;;4.09;71.80
51715;BME280;39115;59.332;18.034;2023-02-20T14:10:29;97858.28;;;4.09;71.53
51715;BME280;39115;59.332;18.034;2023-02-20T14:12:56;97848.75;;;4.08;71.60
51715;BME280;39115;59.332;18.034;2023-02-20T14:15:19;97852.19;;;4.08;71.27
51715;BME280;39115;59.332;18.034;2023-02-20T14:17:41;97869.47;;;4.11;71.47
51715;BME280;39115;59.332;18.034;2023-02-20T14:20:02;97858.47;;;4.07;71.63
51715;BME280;39115;59.332;18.034;2023-02-20T14:22:26;97852.34;;;4.07;71.70